createdAt,value
2019-03-24T00:00:37.350Z,9.40
2019-03-24T00:03:05.860Z,9.40
2019-03-24T00:05:34.274Z,9.30
2019-03-24T00:08:02.695Z,9.10
2019-03-24T00:10:31.236Z,9.10
2019-03-24T00:12:59.651Z,9.00
2019-03-24T00:15:28.111Z,8.90
2019-03-24T00:17:56.579Z,8.80
2019-03-24T00:20:25.315Z,8.70
2019-03-24T00:22:53.868Z,8.70
2019-03-24T00:25:22.277Z,8.60
2019-03-24T00:27:50.688Z,8.50
2019-03-24T00:30:19.350Z,8.50
2019-03-24T00:32:47.758Z,8.50
2019-03-24T00:35:16.231Z,8.50
2019-03-24T00:37:44.639Z,8.40
2019-03-24T00:40:13.300Z,8.40
2019-03-24T00:42:41.815Z,8.50
2019-03-24T00:45:11.195Z,8.60
2019-03-24T00:47:39.615Z,8.70
2019-03-24T00:50:08.188Z,8.80
2019-03-24T00:52:37.165Z,8.60
2019-03-24T00:55:05.928Z,8.50
2019-03-24T00:57:34.354Z,8.50
2019-03-24T01:00:02.980Z,8.40
2019-03-24T01:02:31.474Z,8.20
2019-03-24T01:04:59.875Z,8.10
2019-03-24T01:07:28.297Z,8.20
2019-03-24T01:09:56.762Z,8.20
2019-03-24T01:12:25.239Z,8.30
2019-03-24T01:14:53.678Z,8.30
2019-03-24T01:17:22.090Z,8.20
2019-03-24T01:19:50.542Z,8.20
2019-03-24T01:22:18.956Z,8.10
2019-03-24T01:24:47.407Z,8.10
2019-03-24T01:27:16.011Z,8.10
2019-03-24T01:29:44.986Z,8.00
2019-03-24T01:32:13.404Z,8.00
2019-03-24T01:34:41.854Z,8.00
2019-03-24T01:37:10.388Z,8.00
2019-03-24T01:39:38.845Z,7.90
2019-03-24T01:42:07.260Z,7.80
2019-03-24T01:44:35.724Z,7.70
2019-03-24T01:47:04.243Z,7.70
2019-03-24T01:49:32.638Z,7.70
2019-03-24T01:52:01.172Z,7.80
2019-03-24T01:54:29.584Z,7.70
2019-03-24T01:56:57.994Z,7.70
2019-03-24T01:59:27.530Z,7.60
2019-03-24T02:01:55.982Z,7.60
2019-03-24T02:04:24.463Z,7.50
2019-03-24T02:06:52.872Z,7.50
2019-03-24T02:09:21.320Z,7.50
2019-03-24T02:11:50.864Z,7.40
2019-03-24T02:14:19.549Z,7.40
2019-03-24T02:16:48.002Z,7.30
2019-03-24T02:19:16.424Z,7.20
2019-03-24T02:21:44.871Z,7.10
2019-03-24T02:24:13.268Z,7.00
2019-03-24T02:26:41.718Z,7.00
2019-03-24T02:29:10.127Z,6.90
2019-03-24T02:31:38.575Z,7.00
2019-03-24T02:34:06.987Z,7.00
2019-03-24T02:36:35.447Z,6.90
2019-03-24T02:39:06.663Z,7.00
2019-03-24T02:41:35.427Z,6.90
2019-03-24T02:44:03.924Z,6.80
2019-03-24T02:46:32.338Z,6.80
2019-03-24T02:49:00.792Z,6.70
2019-03-24T02:51:29.220Z,6.80
2019-03-24T02:53:58.796Z,6.80
2019-03-24T02:56:27.210Z,6.70
2019-03-24T02:58:55.627Z,6.70
2019-03-24T03:01:24.118Z,6.60
2019-03-24T03:03:52.580Z,6.50
2019-03-24T03:06:21.024Z,6.50
2019-03-24T03:08:49.445Z,6.50
2019-03-24T03:11:24.000Z,6.50
2019-03-24T03:13:52.616Z,6.60
2019-03-24T03:16:21.226Z,6.70
2019-03-24T03:18:49.897Z,6.50
2019-03-24T03:21:18.606Z,6.40
2019-03-24T03:23:47.266Z,6.50
2019-03-24T03:26:16.228Z,6.50
2019-03-24T03:28:44.981Z,6.50
2019-03-24T03:31:13.710Z,6.40
2019-03-24T03:33:42.345Z,6.30
2019-03-24T03:36:11.088Z,6.30
2019-03-24T03:38:39.724Z,6.20
2019-03-24T03:41:08.507Z,6.20
2019-03-24T03:43:37.279Z,6.30
2019-03-24T03:46:06.374Z,6.40
2019-03-24T03:48:34.990Z,6.40
2019-03-24T03:51:03.693Z,6.30
2019-03-24T03:53:32.366Z,6.20
2019-03-24T03:56:01.130Z,6.30
2019-03-24T03:58:29.794Z,6.30
2019-03-24T04:00:58.411Z,6.30
2019-03-24T04:03:27.155Z,6.20
2019-03-24T04:05:55.839Z,6.10
2019-03-24T04:08:24.946Z,6.10
2019-03-24T04:10:53.647Z,6.10
2019-03-24T04:13:22.362Z,6.20
2019-03-24T04:15:51.703Z,6.10
2019-03-24T04:18:20.305Z,6.10
2019-03-24T04:20:50.178Z,6.00
2019-03-24T04:23:18.842Z,5.90
2019-03-24T04:25:47.493Z,5.90
2019-03-24T04:28:16.094Z,5.90
2019-03-24T04:30:45.213Z,5.90
2019-03-24T04:33:13.848Z,5.90
2019-03-24T04:35:42.984Z,5.90
2019-03-24T04:38:11.741Z,5.90
2019-03-24T04:40:40.361Z,5.80
2019-03-24T04:43:09.032Z,5.80
2019-03-24T04:45:37.635Z,5.60
2019-03-24T04:48:06.296Z,5.60
2019-03-24T04:50:34.976Z,5.60
2019-03-24T04:53:03.737Z,5.60
2019-03-24T04:55:32.560Z,5.60
2019-03-24T04:58:01.739Z,5.70
2019-03-24T05:00:37.806Z,5.70
2019-03-24T05:03:06.719Z,5.70
2019-03-24T05:05:35.598Z,5.60
2019-03-24T05:08:04.829Z,5.60
2019-03-24T05:10:33.451Z,5.60
2019-03-24T05:13:02.131Z,5.60
2019-03-24T05:15:30.861Z,5.50
2019-03-24T05:17:59.489Z,5.50
2019-03-24T05:20:28.632Z,5.50
2019-03-24T05:22:57.242Z,5.50
2019-03-24T05:25:26.001Z,5.40
2019-03-24T05:27:54.619Z,5.40
2019-03-24T05:30:23.289Z,5.20
2019-03-24T05:32:51.913Z,5.20
2019-03-24T05:35:20.584Z,5.30
2019-03-24T05:37:49.315Z,5.20
2019-03-24T05:40:18.090Z,5.20
2019-03-24T05:42:46.697Z,5.20
2019-03-24T05:45:15.558Z,5.10
2019-03-24T05:47:44.232Z,5.10
2019-03-24T05:50:12.956Z,5.10
2019-03-24T05:52:41.624Z,5.10
2019-03-24T05:55:10.441Z,5.10
2019-03-24T05:57:39.107Z,5.10
2019-03-24T06:00:08.439Z,5.10
2019-03-24T06:02:37.152Z,5.20
2019-03-24T06:05:06.522Z,5.20
2019-03-24T06:07:35.183Z,5.20
2019-03-24T06:10:04.667Z,5.30
2019-03-24T06:12:33.336Z,5.40
2019-03-24T06:15:02.077Z,5.40
2019-03-24T06:17:30.749Z,5.50
2019-03-24T06:19:59.363Z,5.50
2019-03-24T06:22:27.988Z,5.60
2019-03-24T06:24:57.011Z,5.70
2019-03-24T06:27:25.641Z,5.80
2019-03-24T06:29:54.307Z,5.90
2019-03-24T06:32:22.921Z,6.00
2019-03-24T06:34:51.589Z,6.10
2019-03-24T06:37:20.200Z,6.20
2019-03-24T06:39:49.910Z,6.30
2019-03-24T06:42:18.534Z,6.40
2019-03-24T06:44:47.160Z,6.70
2019-03-24T06:47:17.048Z,7.10
2019-03-24T06:49:45.656Z,7.40
2019-03-24T06:52:14.717Z,7.80
2019-03-24T06:54:43.340Z,8.30
2019-03-24T06:57:12.011Z,8.80
2019-03-24T06:59:40.627Z,9.20
2019-03-24T07:02:09.445Z,9.60
2019-03-24T07:04:39.216Z,10.00
2019-03-24T07:07:07.841Z,10.30
2019-03-24T07:09:36.502Z,10.60
2019-03-24T07:12:05.316Z,10.90
2019-03-24T07:14:33.978Z,11.20
2019-03-24T07:17:02.708Z,11.40
2019-03-24T07:19:31.317Z,11.70
2019-03-24T07:21:59.990Z,11.90
2019-03-24T07:24:29.080Z,12.20
2019-03-24T07:26:57.742Z,12.40
2019-03-24T07:29:26.369Z,12.60
2019-03-24T07:31:55.122Z,12.70
2019-03-24T07:34:23.816Z,12.80
2019-03-24T07:36:52.437Z,12.90
2019-03-24T07:39:21.097Z,13.00
2019-03-24T07:41:49.729Z,13.10
2019-03-24T07:44:18.394Z,13.30
2019-03-24T07:46:47.004Z,13.40
2019-03-24T07:49:15.757Z,13.60
2019-03-24T07:51:44.381Z,13.80
2019-03-24T07:54:12.967Z,14.00
2019-03-24T07:56:41.629Z,14.20
2019-03-24T07:59:10.234Z,14.30
2019-03-24T08:01:38.947Z,14.40
2019-03-24T08:04:07.605Z,14.60
2019-03-24T08:06:36.815Z,14.80
2019-03-24T08:09:06.564Z,14.90
2019-03-24T08:11:35.156Z,15.10
2019-03-24T08:14:04.099Z,15.20
2019-03-24T08:16:33.367Z,15.50
2019-03-24T08:19:02.182Z,15.80
2019-03-24T08:21:30.875Z,16.00
2019-03-24T08:23:59.465Z,16.20
2019-03-24T08:26:28.293Z,16.40
2019-03-24T08:28:56.940Z,16.60
2019-03-24T08:31:25.532Z,16.70
2019-03-24T08:33:54.747Z,16.90
2019-03-24T08:36:23.385Z,17.10
2019-03-24T08:38:52.076Z,17.30
2019-03-24T08:41:20.904Z,17.60
2019-03-24T08:43:49.610Z,17.90
2019-03-24T08:46:18.205Z,18.30
2019-03-24T08:48:46.932Z,18.70
2019-03-24T08:51:15.535Z,19.00
2019-03-24T08:53:46.889Z,19.20
2019-03-24T08:56:15.672Z,19.40
2019-03-24T08:58:44.272Z,19.70
2019-03-24T09:01:12.871Z,19.80
2019-03-24T09:03:41.853Z,19.90
2019-03-24T09:06:10.500Z,20.20
2019-03-24T09:08:39.104Z,20.40
2019-03-24T09:11:08.237Z,20.60
2019-03-24T09:13:36.844Z,20.80
2019-03-24T09:16:05.540Z,20.90
2019-03-24T09:18:34.291Z,20.90
2019-03-24T09:21:02.902Z,20.90
2019-03-24T09:23:31.554Z,20.90
2019-03-24T09:26:00.368Z,21.00
2019-03-24T09:28:28.960Z,21.00
2019-03-24T09:30:57.561Z,21.00
2019-03-24T09:33:26.311Z,21.00
2019-03-24T09:35:54.905Z,20.80
2019-03-24T09:38:23.496Z,20.90
2019-03-24T09:40:52.433Z,20.90
2019-03-24T09:43:21.025Z,20.90
2019-03-24T09:45:49.617Z,21.00
2019-03-24T09:48:18.735Z,21.10
2019-03-24T09:50:48.342Z,21.10
2019-03-24T09:53:16.988Z,21.20
2019-03-24T09:55:45.731Z,21.20
2019-03-24T09:58:14.344Z,21.30
2019-03-24T10:00:43.304Z,21.40
2019-03-24T10:03:12.044Z,21.50
2019-03-24T10:05:41.422Z,21.60
2019-03-24T10:08:10.092Z,21.80
2019-03-24T10:10:39.036Z,22.00
2019-03-24T10:13:07.660Z,22.30
2019-03-24T10:15:36.278Z,22.60
2019-03-24T10:18:05.170Z,22.80
2019-03-24T10:20:34.196Z,23.10
2019-03-24T10:23:03.014Z,23.50
2019-03-24T10:25:31.753Z,23.80
2019-03-24T10:28:01.836Z,24.10
2019-03-24T10:30:30.645Z,24.10
2019-03-24T10:32:59.360Z,24.20
2019-03-24T10:35:27.964Z,24.20
2019-03-24T10:37:56.560Z,24.40
2019-03-24T10:40:28.816Z,24.60
2019-03-24T10:42:56.152Z,24.60
2019-03-24T10:45:24.745Z,24.60
2019-03-24T10:47:53.400Z,24.70
2019-03-24T10:50:22.101Z,24.80
2019-03-24T10:52:50.906Z,24.80
2019-03-24T10:55:19.739Z,25.00
2019-03-24T10:57:48.528Z,25.10
2019-03-24T11:00:36.548Z,25.10
2019-03-24T11:03:05.472Z,25.30
2019-03-24T11:05:34.107Z,25.30
2019-03-24T11:08:02.934Z,25.40
2019-03-24T11:10:31.632Z,25.30
2019-03-24T11:13:00.280Z,25.50
2019-03-24T11:15:28.932Z,25.50
2019-03-24T11:17:57.632Z,25.50
2019-03-24T11:20:26.228Z,25.50
2019-03-24T11:22:55.074Z,25.40
2019-03-24T11:25:23.772Z,25.60
2019-03-24T11:27:52.369Z,25.60
2019-03-24T11:30:39.969Z,25.70
2019-03-24T11:33:08.579Z,25.70
2019-03-24T11:35:37.192Z,25.70
2019-03-24T11:38:05.876Z,25.30
2019-03-24T11:40:35.503Z,25.70
2019-03-24T11:43:04.220Z,25.90
2019-03-24T11:45:33.051Z,26.00
2019-03-24T11:48:02.075Z,26.10
2019-03-24T11:50:30.684Z,26.10
2019-03-24T11:52:59.994Z,26.10
2019-03-24T11:55:28.616Z,26.20
2019-03-24T11:58:05.350Z,26.30
2019-03-24T12:00:39.148Z,26.20
2019-03-24T12:03:07.893Z,26.30
2019-03-24T12:05:37.193Z,26.20
2019-03-24T12:08:06.399Z,26.20
2019-03-24T12:10:35.243Z,26.10
2019-03-24T12:13:03.965Z,26.30
2019-03-24T12:15:32.941Z,26.40
2019-03-24T12:18:01.553Z,26.40
2019-03-24T12:20:30.184Z,26.60
2019-03-24T12:22:58.955Z,26.50
2019-03-24T12:25:27.582Z,26.50
2019-03-24T12:27:56.305Z,26.40
2019-03-24T12:30:25.478Z,26.50
2019-03-24T12:32:54.208Z,26.60
2019-03-24T12:35:23.292Z,26.70
2019-03-24T12:37:52.157Z,26.60
2019-03-24T12:40:20.904Z,26.40
2019-03-24T12:42:49.547Z,26.40
2019-03-24T12:45:18.388Z,26.30
2019-03-24T12:47:47.591Z,26.20
2019-03-24T12:50:16.857Z,26.30
2019-03-24T12:52:45.597Z,26.40
2019-03-24T12:55:14.427Z,26.50
2019-03-24T12:57:44.178Z,26.70
2019-03-24T13:00:19.002Z,26.90
2019-03-24T13:02:47.629Z,27.10
2019-03-24T13:05:16.518Z,27.10
2019-03-24T13:07:45.192Z,27.10
2019-03-24T13:10:14.030Z,27.20
2019-03-24T13:12:42.785Z,27.20
2019-03-24T13:15:11.633Z,27.10
2019-03-24T13:17:40.281Z,27.00
2019-03-24T13:20:19.481Z,27.20
2019-03-24T13:22:39.569Z,27.40
2019-03-24T13:25:08.312Z,27.40
2019-03-24T13:27:37.052Z,27.40
2019-03-24T13:30:06.337Z,27.40
2019-03-24T13:32:35.072Z,27.50
2019-03-24T13:35:04.148Z,27.50
2019-03-24T13:37:32.756Z,27.50
2019-03-24T13:40:01.485Z,27.50
2019-03-24T13:42:30.235Z,27.40
2019-03-24T13:44:58.957Z,27.30
2019-03-24T13:47:27.583Z,27.40
2019-03-24T13:49:56.445Z,27.40
2019-03-24T13:52:25.160Z,27.40
2019-03-24T13:54:53.805Z,27.40
2019-03-24T13:57:22.644Z,27.50
2019-03-24T13:59:51.404Z,27.50
2019-03-24T14:02:20.334Z,27.50
2019-03-24T14:04:49.007Z,27.40
2019-03-24T14:07:18.123Z,27.30
2019-03-24T14:09:47.353Z,27.30
2019-03-24T14:12:16.036Z,27.20
2019-03-24T14:14:44.656Z,27.00
2019-03-24T14:17:13.282Z,26.90
2019-03-24T14:19:42.073Z,26.90
2019-03-24T14:22:10.712Z,26.80
2019-03-24T14:24:39.337Z,26.60
2019-03-24T14:27:08.105Z,26.40
2019-03-24T14:29:36.720Z,26.20
2019-03-24T14:32:05.337Z,26.20
2019-03-24T14:34:34.094Z,26.10
2019-03-24T14:37:02.803Z,26.10
2019-03-24T14:39:31.856Z,26.10
2019-03-24T14:42:00.970Z,26.00
2019-03-24T14:44:29.960Z,26.10
2019-03-24T14:47:00.716Z,26.00
2019-03-24T14:49:29.481Z,25.80
2019-03-24T14:51:58.118Z,25.80
2019-03-24T14:54:26.788Z,25.70
2019-03-24T14:56:55.561Z,25.70
2019-03-24T14:59:24.188Z,25.70
2019-03-24T15:01:53.262Z,25.60
2019-03-24T15:04:22.025Z,25.60
2019-03-24T15:06:50.702Z,25.60
2019-03-24T15:09:19.320Z,25.60
2019-03-24T15:11:48.448Z,25.60
2019-03-24T15:14:17.536Z,25.70
2019-03-24T15:16:46.168Z,25.60
2019-03-24T15:19:14.905Z,25.70
2019-03-24T15:21:43.531Z,25.60
2019-03-24T15:24:12.153Z,25.50
2019-03-24T15:26:40.896Z,25.50
2019-03-24T15:29:09.508Z,25.40
2019-03-24T15:31:38.656Z,25.40
2019-03-24T15:34:07.718Z,25.30
2019-03-24T15:36:36.342Z,25.30
2019-03-24T15:39:07.696Z,25.30
2019-03-24T15:41:36.818Z,25.20
2019-03-24T15:44:05.993Z,25.10
2019-03-24T15:46:34.604Z,25.10
2019-03-24T15:49:03.504Z,25.10
2019-03-24T15:51:32.145Z,25.10
2019-03-24T15:54:00.876Z,25.10
2019-03-24T15:56:29.553Z,25.20
2019-03-24T15:58:58.618Z,25.10
2019-03-24T16:01:27.245Z,25.10
2019-03-24T16:03:56.652Z,25.00
2019-03-24T16:06:25.408Z,25.00
2019-03-24T16:08:54.096Z,25.00
2019-03-24T16:11:22.769Z,24.90
2019-03-24T16:13:52.423Z,24.70
2019-03-24T16:16:22.971Z,24.50
2019-03-24T16:18:51.543Z,24.50
2019-03-24T16:21:27.825Z,24.40
2019-03-24T16:23:50.610Z,24.40
2019-03-24T16:26:19.301Z,24.30
2019-03-24T16:28:47.921Z,24.30
2019-03-24T16:31:17.737Z,24.10
2019-03-24T16:33:46.514Z,24.00
2019-03-24T16:36:16.636Z,23.80
2019-03-24T16:38:49.033Z,23.60
2019-03-24T16:41:15.839Z,23.70
2019-03-24T16:43:44.531Z,23.50
2019-03-24T16:46:13.157Z,23.50
2019-03-24T16:48:41.936Z,23.40
2019-03-24T16:51:10.677Z,23.20
2019-03-24T16:53:39.385Z,23.20
2019-03-24T16:56:08.154Z,23.20
2019-03-24T16:58:37.290Z,23.00
2019-03-24T17:01:05.996Z,22.90
2019-03-24T17:03:38.024Z,22.80
2019-03-24T17:06:06.675Z,22.80
2019-03-24T17:08:35.328Z,22.70
2019-03-24T17:11:04.333Z,22.60
2019-03-24T17:13:33.930Z,22.50
2019-03-24T17:16:03.536Z,22.30
2019-03-24T17:18:32.358Z,22.30
2019-03-24T17:21:00.966Z,22.20
2019-03-24T17:23:29.984Z,22.20
2019-03-24T17:25:58.780Z,22.00
2019-03-24T17:28:29.697Z,22.00
2019-03-24T17:30:58.380Z,21.90
2019-03-24T17:33:27.116Z,21.80
2019-03-24T17:35:56.300Z,21.80
2019-03-24T17:38:25.488Z,21.70
2019-03-24T17:40:55.309Z,21.60
2019-03-24T17:43:24.511Z,21.50
2019-03-24T17:45:53.126Z,21.40
2019-03-24T17:48:21.788Z,21.30
2019-03-24T17:50:50.498Z,21.20
2019-03-24T17:53:20.380Z,21.00
2019-03-24T17:55:49.632Z,21.00
2019-03-24T17:58:18.423Z,20.90
2019-03-24T18:00:48.835Z,20.70
2019-03-24T18:03:17.736Z,20.70
2019-03-24T18:05:46.579Z,20.50
2019-03-24T18:08:15.968Z,20.40
2019-03-24T18:10:44.801Z,20.30
2019-03-24T18:13:13.403Z,20.20
2019-03-24T18:15:42.100Z,20.10
2019-03-24T18:18:10.912Z,20.00
2019-03-24T18:20:39.632Z,19.90
2019-03-24T18:23:08.728Z,19.80
2019-03-24T18:25:37.590Z,19.70
2019-03-24T18:28:06.388Z,19.60
2019-03-24T18:30:34.992Z,19.50
2019-03-24T18:33:03.833Z,19.30
2019-03-24T18:35:32.461Z,19.00
2019-03-24T18:38:01.226Z,18.80
2019-03-24T18:40:29.956Z,18.60
2019-03-24T18:42:58.559Z,18.50
2019-03-24T18:45:27.896Z,18.30
2019-03-24T18:47:57.214Z,18.00
2019-03-24T18:50:26.026Z,17.80
2019-03-24T18:52:54.624Z,17.60
2019-03-24T18:55:23.360Z,17.30
2019-03-24T18:57:51.975Z,17.10
2019-03-24T19:00:20.878Z,16.80
2019-03-24T19:02:49.821Z,16.70
2019-03-24T19:05:18.628Z,16.70
2019-03-24T19:07:47.280Z,16.50
2019-03-24T19:10:17.173Z,16.50
2019-03-24T19:12:46.197Z,16.40
2019-03-24T19:15:15.607Z,16.40
2019-03-24T19:17:44.393Z,16.40
2019-03-24T19:20:13.356Z,16.50
2019-03-24T19:22:41.961Z,16.50
2019-03-24T19:25:11.383Z,16.40
2019-03-24T19:27:40.228Z,16.40
2019-03-24T19:30:10.304Z,16.20
2019-03-24T19:32:39.253Z,15.90
2019-03-24T19:35:08.687Z,15.90
2019-03-24T19:37:38.062Z,15.90
2019-03-24T19:40:13.732Z,16.00
2019-03-24T19:42:42.661Z,16.00
2019-03-24T19:45:11.569Z,16.10
2019-03-24T19:47:40.320Z,16.00
2019-03-24T19:50:09.116Z,16.10
2019-03-24T19:52:44.501Z,16.10
2019-03-24T19:55:09.284Z,16.10
2019-03-24T19:57:38.152Z,16.20
2019-03-24T20:00:07.616Z,16.20
2019-03-24T20:02:36.871Z,16.30
2019-03-24T20:05:06.733Z,16.30
2019-03-24T20:07:47.363Z,16.30
2019-03-24T20:10:07.965Z,16.20
2019-03-24T20:12:36.587Z,16.10
2019-03-24T20:15:05.744Z,16.10
2019-03-24T20:17:34.770Z,15.90
2019-03-24T20:20:03.787Z,15.70
2019-03-24T20:22:32.696Z,15.60
2019-03-24T20:25:01.445Z,15.50
2019-03-24T20:27:30.534Z,15.40
2019-03-24T20:30:00.036Z,15.40
2019-03-24T20:32:28.757Z,15.30
2019-03-24T20:34:58.124Z,15.20
2019-03-24T20:37:27.630Z,15.20
2019-03-24T20:39:56.415Z,15.10
2019-03-24T20:42:25.023Z,15.10
2019-03-24T20:44:53.942Z,14.90
2019-03-24T20:47:23.130Z,14.70
2019-03-24T20:49:51.877Z,14.50
2019-03-24T20:52:20.620Z,14.40
2019-03-24T20:54:49.715Z,14.40
2019-03-24T20:57:18.592Z,14.30
2019-03-24T20:59:47.588Z,14.20
2019-03-24T21:02:16.251Z,14.20
2019-03-24T21:04:45.773Z,14.20
2019-03-24T21:07:14.525Z,14.20
2019-03-24T21:09:43.184Z,14.20
2019-03-24T21:12:11.945Z,14.10
2019-03-24T21:14:41.009Z,14.10
2019-03-24T21:17:10.594Z,14.00
2019-03-24T21:19:39.796Z,13.90
2019-03-24T21:22:08.752Z,13.90
2019-03-24T21:24:37.366Z,13.80
2019-03-24T21:27:07.134Z,13.90
2019-03-24T21:29:36.118Z,13.80
2019-03-24T21:32:04.817Z,13.50
2019-03-24T21:34:34.773Z,13.50
2019-03-24T21:37:04.380Z,13.40
2019-03-24T21:39:33.785Z,13.40
2019-03-24T21:42:02.876Z,13.30
2019-03-24T21:44:32.256Z,13.20
2019-03-24T21:47:01.274Z,13.20
2019-03-24T21:49:30.668Z,13.10
2019-03-24T21:52:00.490Z,12.90
2019-03-24T21:54:30.097Z,12.90
2019-03-24T21:56:59.524Z,12.90
2019-03-24T21:59:29.264Z,12.80
2019-03-24T22:01:58.631Z,12.80
2019-03-24T22:04:27.272Z,12.80
2019-03-24T22:06:56.348Z,12.70
2019-03-24T22:09:25.895Z,12.70
2019-03-24T22:11:54.836Z,12.60
2019-03-24T22:14:23.933Z,12.50
2019-03-24T22:16:53.058Z,12.20
2019-03-24T22:19:21.682Z,12.20
2019-03-24T22:21:50.779Z,12.40
2019-03-24T22:24:19.417Z,12.80
2019-03-24T22:26:48.542Z,13.10
2019-03-24T22:29:17.431Z,13.50
2019-03-24T22:31:46.046Z,13.80
2019-03-24T22:34:14.666Z,14.00
2019-03-24T22:36:43.416Z,14.10
2019-03-24T22:39:12.053Z,14.40
2019-03-24T22:41:40.668Z,14.60
2019-03-24T22:44:09.428Z,14.80
2019-03-24T22:46:38.049Z,14.90
2019-03-24T22:49:06.677Z,15.10
2019-03-24T22:51:35.433Z,15.10
2019-03-24T22:54:04.168Z,15.20
2019-03-24T22:56:32.812Z,15.20
2019-03-24T22:59:01.561Z,15.30
2019-03-24T23:01:30.503Z,15.30
2019-03-24T23:03:59.117Z,15.30
2019-03-24T23:06:28.019Z,15.30
2019-03-24T23:08:56.700Z,15.30
2019-03-24T23:11:25.578Z,15.30
2019-03-24T23:13:54.348Z,15.30
2019-03-24T23:16:22.973Z,15.30
2019-03-24T23:18:51.592Z,15.30
2019-03-24T23:21:20.319Z,15.20
2019-03-24T23:23:48.936Z,15.20
2019-03-24T23:26:17.554Z,15.20
2019-03-24T23:28:46.317Z,15.10
2019-03-24T23:31:14.972Z,15.10
2019-03-24T23:33:43.591Z,15.00
2019-03-24T23:36:12.372Z,15.10
2019-03-24T23:38:40.996Z,15.00
2019-03-24T23:41:09.610Z,15.00
2019-03-24T23:43:38.398Z,15.00
2019-03-24T23:46:07.220Z,14.90
2019-03-24T23:48:36.361Z,14.80
2019-03-24T23:51:05.141Z,14.80
2019-03-24T23:53:33.756Z,14.70
2019-03-24T23:56:02.858Z,14.60
2019-03-24T23:58:40.270Z,14.50
